Time;durP1;ratioP1;P1;durP2;ratioP2;P2;SDS_P1;SDS_P2;PMS_P1;PMS_P2;Temp;Humidity;BMP_temperature;BMP_pressure;BME280_temperature;BME280_humidity;BME280_pressure;Samples;Min_cycle;Max_cycle;Signal;HPM_P1;HPM_P2
2022/03/06 00:03:57;;;;;;;11.57;7.47;;;;;;;0.63;46.51;98326.34;12740699;23;20021;-78
2022/03/06 00:09:53;;;;;;;12.25;7.00;;;;;;;0.48;47.07;98317.72;12773483;23;20025;-79
2022/03/06 00:15:13;;;;;;;12.50;7.18;;;;;;;0.42;47.23;98319.78;12739846;23;20071;-78
2022/03/06 00:21:07;;;;;;;11.68;7.00;;;;;;;0.35;47.31;98317.59;12770558;23;20029;-79
2022/03/06 00:27:35;;;;;;;12.93;7.47;;;;;;;0.32;47.25;98324.84;12771721;23;20021;-78
2022/03/06 00:33:04;;;;;;;13.25;7.50;;;;;;;0.28;47.14;98319.63;12779595;23;20017;-79
2022/03/06 00:38:54;;;;;;;15.38;8.55;;;;;;;0.30;47.16;98313.66;12756656;23;20024;-78
2022/03/06 00:44:17;;;;;;;14.25;8.65;;;;;;;0.25;47.29;98315.16;12802487;23;20359;-78
2022/03/06 00:50:06;;;;;;;16.30;9.75;;;;;;;0.22;47.95;98301.72;12787622;23;20060;-78
2022/03/06 00:55:58;;;;;;;14.65;9.10;;;;;;;0.22;47.03;98301.72;12756551;23;20424;-78
2022/03/06 01:01:50;;;;;;;14.57;8.65;;;;;;;0.08;48.04;98314.53;12757639;23;20033;-78
2022/03/06 01:15:50;;;;;;;14.65;9.38;;;;;;;-0.13;48.64;98308.69;12823920;23;20017;-78
2022/03/06 01:21:42;;;;;;;16.55;9.13;;;;;;;-0.08;48.14;98309.91;12771792;23;20025;-78
2022/03/06 01:27:31;;;;;;;17.65;10.82;;;;;;;-0.09;48.11;98308.44;12770277;23;20025;-79
2022/03/06 01:33:01;;;;;;;16.63;10.85;;;;;;;-0.09;48.27;98305.69;12737560;23;20021;-78
2022/03/06 01:38:53;;;;;;;15.98;10.02;;;;;;;-0.13;48.42;98313.44;12735643;23;20025;-79
2022/03/06 01:44:14;;;;;;;19.73;11.63;;;;;;;-0.21;48.84;98315.97;12759162;23;20020;-78
2022/03/06 01:50:04;;;;;;;17.65;10.80;;;;;;;-0.24;49.28;98305.28;12756371;23;20025;-78
2022/03/06 01:56:00;;;;;;;18.00;10.02;;;;;;;-0.31;49.29;98310.03;12754891;23;20020;-78
2022/03/06 02:01:29;;;;;;;16.52;10.15;;;;;;;-0.35;49.31;98303.34;12739229;23;20305;-78
2022/03/06 02:06:50;;;;;;;18.80;10.77;;;;;;;-0.38;49.34;98302.38;12777592;23;20031;-78
2022/03/06 02:19:57;;;;;;;19.08;10.77;;;;;;;-0.51;49.99;98310.41;12801737;23;20344;-78
2022/03/06 02:25:19;;;;;;;16.92;9.82;;;;;;;-0.52;49.67;98311.66;12759305;23;20017;-79
2022/03/06 02:30:48;;;;;;;19.17;10.35;;;;;;;-0.61;49.71;98300.97;12772623;23;20017;-79
2022/03/06 02:36:08;;;;;;;16.35;10.57;;;;;;;-0.62;49.62;98305.72;12737829;23;20017;-78
2022/03/06 02:41:38;;;;;;;18.70;11.30;;;;;;;-0.67;49.99;98308.50;12759541;23;20025;-78
2022/03/06 02:46:59;;;;;;;19.88;10.55;;;;;;;-0.72;50.35;98307.25;12783755;23;20087;-78
2022/03/06 02:52:20;;;;;;;15.50;10.63;;;;;;;-0.76;50.57;98301.28;12762644;23;20088;-79
2022/03/06 02:57:49;;;;;;;18.17;10.63;;;;;;;-0.74;49.88;98304.28;12742982;23;20021;-78
2022/03/06 03:03:22;;;;;;;20.02;11.32;;;;;;;-0.77;50.62;98299.03;12783073;23;20037;-78
2022/03/06 03:09:21;;;;;;;18.08;10.57;;;;;;;-0.77;50.42;98299.81;12771516;23;20416;-79
2022/03/06 03:14:42;;;;;;;17.70;10.60;;;;;;;-0.80;50.85;98306.28;12742734;23;20098;-78
2022/03/06 03:20:06;;;;;;;20.90;11.73;;;;;;;-0.81;50.92;98310.28;12781468;23;20016;-78
2022/03/06 03:25:57;;;;;;;24.65;12.13;;;;;;;-0.84;50.75;98308.56;12757513;23;20339;-79
2022/03/06 03:31:19;;;;;;;20.30;12.05;;;;;;;-0.90;50.83;98302.34;12783208;23;20013;-79
2022/03/06 03:37:16;;;;;;;24.00;13.00;;;;;;;-0.95;51.14;98316.81;12760697;23;20343;-78
2022/03/06 03:43:12;;;;;;;22.60;11.73;;;;;;;-1.01;51.21;98307.84;12785427;23;20029;-78
2022/03/06 03:49:35;;;;;;;20.02;11.40;;;;;;;-1.03;51.48;98321.31;12740355;23;20396;-79
2022/03/06 03:55:24;;;;;;;19.20;10.30;;;;;;;-0.92;51.84;98322.03;12771052;23;20029;-78
2022/03/06 04:01:13;;;;;;;17.40;10.32;;;;;;;-0.75;51.15;98323.97;12786836;23;20021;-78
2022/03/06 04:06:35;;;;;;;15.95;9.85;;;;;;;-0.64;51.42;98319.19;12699610;23;20022;-79
2022/03/06 04:12:00;;;;;;;;;;;;;;;-0.53;51.40;98318.38;12700120;23;20032;-78
2022/03/06 04:17:20;;;;;;;20.63;10.32;;;;;;;-0.41;51.10;98324.56;12738565;23;19971;-78
2022/03/06 04:22:41;;;;;;;18.88;10.68;;;;;;;-0.28;51.41;98324.00;12738058;23;20341;-78
2022/03/06 04:28:10;;;;;;;16.90;9.88;;;;;;;-0.20;51.54;98317.47;12717959;23;20340;-78
2022/03/06 04:33:50;;;;;;;17.45;10.40;;;;;;;-0.13;51.57;98325.16;12686537;23;20321;-78
2022/03/06 04:39:11;;;;;;;16.38;10.20;;;;;;;-0.06;51.03;98323.88;12696903;23;20021;-79
2022/03/06 04:44:39;;;;;;;17.20;9.63;;;;;;;0.05;51.28;98336.78;12739245;23;20045;-78
2022/03/06 04:50:01;;;;;;;16.80;9.93;;;;;;;0.07;51.41;98337.75;12716621;23;20013;-78
2022/03/06 04:55:22;;;;;;;16.55;9.45;;;;;;;0.12;51.10;98341.72;12737544;23;20458;-78
2022/03/06 05:00:43;;;;;;;16.90;9.48;;;;;;;0.15;51.07;98324.22;12694578;23;20071;-78
2022/03/06 05:06:04;;;;;;;14.95;9.10;;;;;;;0.18;51.08;98326.69;12695500;23;20026;-78
2022/03/06 05:11:25;;;;;;;17.05;9.30;;;;;;;0.25;51.02;98328.16;12702865;23;20045;-78
2022/03/06 05:16:46;;;;;;;15.98;10.27;;;;;;;0.27;51.22;98329.13;12717783;23;20345;-78
2022/03/06 05:22:14;;;;;;;16.55;9.75;;;;;;;0.28;51.13;98333.34;12719522;23;20022;-78
2022/03/06 05:28:11;;;;;;;16.02;9.80;;;;;;;0.33;51.17;98347.56;12707870;23;20088;-78
2022/03/06 05:33:32;;;;;;;19.88;9.82;;;;;;;0.39;50.97;98334.56;12716775;23;20013;-78
2022/03/06 05:38:53;;;;;;;17.13;9.85;;;;;;;0.41;51.07;98329.28;12696934;23;20029;-79
2022/03/06 05:44:14;;;;;;;15.85;9.35;;;;;;;0.47;51.11;98332.72;12717014;23;20020;-79
2022/03/06 05:49:47;;;;;;;19.60;10.25;;;;;;;0.49;50.64;98330.97;12739187;23;20017;-78
2022/03/06 05:55:12;;;;;;;18.98;10.60;;;;;;;0.51;51.37;98344.94;12696888;23;20017;-78
2022/03/06 06:00:33;;;;;;;18.45;10.20;;;;;;;0.55;50.90;98328.16;12717560;23;20044;-78
2022/03/06 06:05:54;;;;;;;16.50;10.55;;;;;;;0.64;50.58;98329.81;12721021;23;20024;-78
2022/03/06 06:11:25;;;;;;;15.38;9.55;;;;;;;0.71;50.53;98330.00;12726328;23;20121;-78
2022/03/06 06:16:49;;;;;;;16.13;9.05;;;;;;;0.75;50.96;98326.97;12717823;23;20072;-78
2022/03/06 06:22:10;;;;;;;17.15;10.15;;;;;;;0.80;51.01;98315.94;12762541;23;20025;-78
2022/03/06 06:27:33;;;;;;;15.73;9.88;;;;;;;0.90;50.81;98323.84;12711709;23;20021;-78
2022/03/06 06:32:54;;;;;;;17.92;9.98;;;;;;;1.05;50.75;98321.41;12720354;23;20025;-78
2022/03/06 06:38:16;;;;;;;19.35;11.02;;;;;;;1.06;50.29;98320.94;12720751;23;20014;-78
2022/03/06 06:44:13;;;;;;;16.40;10.35;;;;;;;1.20;50.35;98334.78;12740579;23;20018;-79
2022/03/06 06:49:35;;;;;;;15.40;9.95;;;;;;;1.60;50.48;98333.03;12739676;23;20017;-78
2022/03/06 06:54:57;;;;;;;17.55;11.25;;;;;;;2.57;49.79;98332.63;12720499;23;20013;-79
2022/03/06 07:00:17;;;;;;;15.63;11.35;;;;;;;3.83;48.94;98336.75;12721769;23;20029;-77
2022/03/06 07:05:39;;;;;;;16.23;10.55;;;;;;;5.29;46.67;98347.81;12705975;23;20017;-77
2022/03/06 07:11:00;;;;;;;19.27;11.98;;;;;;;6.05;45.00;98344.66;12730132;23;20025;-74
2022/03/06 07:16:20;;;;;;;17.55;12.13;;;;;;;7.29;44.80;98344.19;12743849;23;20040;-78
2022/03/06 07:21:41;;;;;;;15.63;11.20;;;;;;;10.42;38.90;98350.06;12720390;23;20028;-77
2022/03/06 07:27:02;;;;;;;15.48;11.40;;;;;;;13.68;36.67;98346.72;12741084;23;20121;-78
2022/03/06 07:32:24;;;;;;;17.35;11.40;;;;;;;15.03;34.38;98341.75;12739031;23;20014;-78
2022/03/06 07:37:44;;;;;;;17.38;11.73;;;;;;;15.58;33.07;98341.41;12738978;23;20017;-78
2022/03/06 07:43:05;;;;;;;16.08;11.20;;;;;;;15.12;30.36;98340.88;12700124;23;20024;-78
2022/03/06 07:48:27;;;;;;;14.25;11.18;;;;;;;14.53;28.18;98345.03;12722149;23;20349;-78
2022/03/06 07:53:47;;;;;;;14.57;11.77;;;;;;;16.31;25.21;98351.88;12741587;23;20368;-78
2022/03/06 07:59:08;;;;;;;15.75;12.00;;;;;;;15.62;25.04;98353.63;12720500;23;20440;-79
2022/03/06 08:04:29;;;;;;;15.43;12.05;;;;;;;15.61;26.39;98346.53;12706451;23;20013;-78
2022/03/06 08:09:49;;;;;;;15.02;11.43;;;;;;;16.26;23.88;98358.66;12712736;23;20043;-77
2022/03/06 08:15:10;;;;;;;13.20;9.85;;;;;;;15.87;25.24;98349.41;12739312;23;20136;-77
2022/03/06 08:20:31;;;;;;;11.95;8.93;;;;;;;16.73;25.08;98355.56;12719273;23;20350;-77
2022/03/06 08:25:51;;;;;;;11.20;7.03;;;;;;;17.73;27.03;98352.91;12759858;23;20014;-78
2022/03/06 08:31:12;;;;;;;8.48;6.53;;;;;;;20.06;26.20;98361.16;12718337;23;20017;-80
2022/03/06 08:36:34;;;;;;;8.30;6.28;;;;;;;22.19;19.40;98356.03;12718247;23;20389;-78
2022/03/06 08:41:55;;;;;;;9.50;7.10;;;;;;;20.16;17.86;98361.56;12697694;23;20028;-78
2022/03/06 08:47:16;;;;;;;7.35;5.95;;;;;;;17.44;18.14;98353.56;12758630;23;20013;-76
2022/03/06 08:52:37;;;;;;;9.38;6.43;;;;;;;15.33;18.75;98350.50;12717874;23;20398;-75
2022/03/06 08:57:58;;;;;;;8.70;6.30;;;;;;;13.24;19.70;98364.16;12738405;23;20381;-76
2022/03/06 09:03:19;;;;;;;9.18;7.13;;;;;;;12.31;20.73;98364.78;12731392;23;20017;-75
2022/03/06 09:08:40;;;;;;;11.63;7.30;;;;;;;11.53;21.53;98363.34;12715791;23;20013;-77
2022/03/06 09:14:00;;;;;;;11.82;6.53;;;;;;;11.72;21.40;98362.63;12718054;23;20020;-75
2022/03/06 09:21:01;;;;;;;7.88;5.85;;;;;;;11.23;21.53;98366.69;12738886;23;20429;-76
2022/03/06 09:26:22;;;;;;;6.75;5.20;;;;;;;10.82;22.12;98363.63;12739341;23;20019;-76
2022/03/06 09:31:43;;;;;;;9.65;7.20;;;;;;;11.53;21.80;98366.13;12717525;23;20014;-76
2022/03/06 09:37:06;;;;;;;8.63;5.68;;;;;;;12.70;21.58;98367.47;12759219;23;20136;-76
2022/03/06 09:42:27;;;;;;;10.00;5.70;;;;;;;12.76;20.82;98356.69;12759077;23;20018;-78
2022/03/06 09:47:53;;;;;;;8.48;5.40;;;;;;;12.38;20.92;98362.44;12700203;23;20021;-78
2022/03/06 09:53:14;;;;;;;6.72;5.35;;;;;;;11.21;21.52;98360.94;12718470;23;20436;-77
2022/03/06 09:59:09;;;;;;;8.63;6.03;;;;;;;10.89;22.68;98359.97;12759188;23;20020;-77
2022/03/06 10:04:31;;;;;;;8.30;5.90;;;;;;;10.80;22.98;98363.47;12738691;23;20017;-77
2022/03/06 10:18:05;;;;;;;8.35;6.03;;;;;;;9.51;23.68;98354.72;12806273;23;20021;-88
2022/03/06 10:23:27;;;;;;;7.57;6.10;;;;;;;9.94;23.69;98345.66;12891928;23;19996;-89
2022/03/06 10:28:50;;;;;;;8.27;5.75;;;;;;;10.13;23.52;98353.41;12850659;23;20044;-88
2022/03/06 10:40:16;;;;;;;8.98;6.40;;;;;;;10.09;24.14;98353.09;12682181;23;20065;-81
2022/03/06 10:45:36;;;;;;;8.02;6.38;;;;;;;10.02;24.03;98343.50;12641111;23;20014;-80
2022/03/06 10:52:01;;;;;;;7.55;5.78;;;;;;;9.81;24.49;98340.41;12657602;23;20073;-76
2022/03/06 10:57:23;;;;;;;7.60;6.03;;;;;;;10.27;24.19;98337.06;12659384;23;20025;-80
2022/03/06 11:02:43;;;;;;;6.57;5.43;;;;;;;9.56;24.09;98339.81;12646664;23;20032;-78
2022/03/06 11:08:06;;;;;;;8.30;5.82;;;;;;;8.86;24.47;98334.13;12682363;23;20021;-78
2022/03/06 11:13:29;;;;;;;7.75;5.63;;;;;;;8.68;24.97;98329.81;12743228;23;20013;-77
2022/03/06 11:18:52;;;;;;;7.88;6.05;;;;;;;8.23;25.05;98320.47;12723194;23;20023;-79
2022/03/06 11:24:16;;;;;;;8.50;6.07;;;;;;;7.50;25.58;98319.69;12721789;23;20017;-77
2022/03/06 11:30:04;;;;;;;10.20;6.10;;;;;;;7.12;26.57;98319.78;12701636;23;20020;-77
2022/03/06 11:35:29;;;;;;;7.75;5.53;;;;;;;6.88;27.41;98301.69;12728695;23;20336;-77
2022/03/06 11:40:55;;;;;;;8.88;6.18;;;;;;;7.12;27.29;98309.41;12680124;23;20026;-77
2022/03/06 11:46:23;;;;;;;11.40;5.65;;;;;;;7.13;27.36;98302.56;12719672;23;20014;-77
2022/03/06 11:51:44;;;;;;;7.88;6.05;;;;;;;6.95;27.88;98302.94;12700916;23;20477;-77
2022/03/06 11:57:11;;;;;;;8.27;5.35;;;;;;;6.71;27.29;98290.41;12693481;23;20021;-81
2022/03/06 12:02:36;;;;;;;7.60;4.90;;;;;;;6.59;27.66;98288.00;12700809;23;20024;-77
2022/03/06 12:08:26;;;;;;;7.03;4.93;;;;;;;6.77;27.79;98280.59;12711685;23;20026;-77
2022/03/06 12:13:53;;;;;;;8.50;5.63;;;;;;;6.85;28.05;98270.25;12678947;23;20444;-77
2022/03/06 12:20:23;;;;;;;6.30;4.43;;;;;;;6.68;27.98;98274.88;12726116;23;20376;-76
2022/03/06 12:25:50;;;;;;;6.45;4.20;;;;;;;6.44;27.90;98273.38;12738931;23;20021;-77
2022/03/06 12:31:41;;;;;;;;;;;;;;;6.17;28.60;98273.00;12725781;23;20096;-77
2022/03/06 12:37:44;;;;;;;6.63;4.45;;;;;;;6.17;28.59;98268.19;12707799;23;20307;-76
2022/03/06 12:43:33;;;;;;;5.60;4.05;;;;;;;6.08;28.65;98265.22;12724141;23;20033;-76
2022/03/06 12:49:23;;;;;;;8.02;4.68;;;;;;;6.11;28.72;98255.81;12724557;23;20435;-77
2022/03/06 12:54:46;;;;;;;7.13;4.68;;;;;;;5.60;29.25;98243.50;12739305;23;20014;-77
2022/03/06 13:00:14;;;;;;;7.18;4.70;;;;;;;5.39;28.93;98246.34;12698770;23;20459;-77
2022/03/06 13:05:38;;;;;;;9.10;4.72;;;;;;;5.52;29.78;98242.72;12739949;23;20440;-77
2022/03/06 13:11:08;;;;;;;7.53;4.80;;;;;;;5.78;29.77;98244.44;12739849;23;20018;-77
2022/03/06 13:16:58;;;;;;;9.30;5.88;;;;;;;5.99;30.01;98247.13;12695897;23;20437;-78
2022/03/06 13:22:25;;;;;;;9.13;5.82;;;;;;;5.79;29.90;98250.72;12699409;23;20017;-75
2022/03/06 13:28:48;;;;;;;;;;;;;;;5.50;30.58;98237.00;12711910;23;20360;-79
2022/03/06 13:34:41;;;;;;;8.48;5.90;;;;;;;5.57;31.38;98238.28;12728604;23;19956;-78
2022/03/06 13:40:35;;;;;;;9.30;6.03;;;;;;;5.39;31.33;98229.72;12716026;23;20005;-82
2022/03/06 13:45:56;;;;;;;10.65;6.97;;;;;;;5.24;31.28;98223.41;12730445;23;20021;-82
2022/03/06 13:51:30;;;;;;;10.95;6.30;;;;;;;5.39;31.35;98224.19;12719717;23;20037;-80
2022/03/06 13:56:58;;;;;;;9.88;6.82;;;;;;;5.28;31.98;98232.84;12739612;23;20096;-78
2022/03/06 14:03:46;;;;;;;11.85;7.88;;;;;;;5.14;32.28;98231.50;12550887;23;20027;-80
2022/03/06 14:09:36;;;;;;;11.43;7.80;;;;;;;4.97;33.24;98231.22;12545490;23;20031;-81
2022/03/06 14:16:11;;;;;;;10.15;7.40;;;;;;;4.93;33.22;98239.13;12542125;23;20088;-77
2022/03/06 14:22:36;;;;;;;11.48;7.10;;;;;;;4.82;33.32;98238.13;12524092;23;20071;-76
2022/03/06 14:28:28;;;;;;;10.10;7.25;;;;;;;4.81;33.11;98227.59;12555297;23;20027;-79
2022/03/06 14:33:54;;;;;;;13.60;7.93;;;;;;;4.70;34.41;98231.41;12687180;23;20025;-78
2022/03/06 14:39:51;;;;;;;11.02;7.15;;;;;;;4.69;33.81;98240.25;12729265;23;20333;-77
2022/03/06 14:45:40;;;;;;;11.48;7.00;;;;;;;4.49;33.53;98244.53;12638981;23;20417;-78
2022/03/06 14:51:31;;;;;;;9.80;6.97;;;;;;;4.29;34.22;98246.03;12652325;23;20441;-79
2022/03/06 14:56:58;;;;;;;12.35;7.25;;;;;;;4.22;34.54;98252.25;12662004;23;20018;-78
2022/03/06 15:03:19;;;;;;;11.05;6.63;;;;;;;4.25;34.54;98254.69;12667208;23;20030;-76
2022/03/06 15:10:20;;;;;;;11.48;8.07;;;;;;;4.20;35.08;98252.78;12665426;23;20022;-77
2022/03/06 15:16:13;;;;;;;11.68;7.43;;;;;;;4.05;35.39;98255.41;12701881;23;20014;-77
2022/03/06 15:21:36;;;;;;;11.35;7.50;;;;;;;4.06;35.92;98245.84;12665812;23;20018;-78
2022/03/06 15:27:06;;;;;;;10.95;6.35;;;;;;;4.07;36.03;98252.88;12640531;23;20088;-80
2022/03/06 15:33:35;;;;;;;9.70;5.82;;;;;;;4.02;36.02;98259.25;12622472;23;20017;-79
2022/03/06 15:39:24;;;;;;;11.25;6.18;;;;;;;3.90;35.66;98255.28;12677370;23;20030;-79
2022/03/06 15:53:29;;;;;;;9.63;6.85;;;;;;;3.43;36.31;98262.31;12742484;23;20435;-78
2022/03/06 15:59:30;;;;;;;10.13;6.47;;;;;;;3.38;38.31;98262.44;12679698;23;20021;-77
2022/03/06 16:05:22;;;;;;;14.13;6.95;;;;;;;3.27;38.18;98265.41;12721993;23;20009;-82
2022/03/06 16:10:48;;;;;;;10.57;6.13;;;;;;;3.22;37.65;98269.78;12746557;23;20073;-83
2022/03/06 16:16:10;;;;;;;12.60;7.18;;;;;;;3.11;38.07;98265.22;12725353;23;20004;-86
2022/03/06 16:21:33;;;;;;;10.50;6.75;;;;;;;3.04;37.78;98265.13;12747235;23;20002;-79
2022/03/06 16:27:42;;;;;;;14.60;6.30;;;;;;;3.05;39.22;98264.59;12787883;23;20080;31
2022/03/06 16:33:03;;;;;;;15.18;6.82;;;;;;;2.96;38.57;98278.06;12561968;23;20041;-77
2022/03/06 16:39:58;;;;;;;10.73;7.00;;;;;;;2.90;40.70;98278.19;12515247;23;20090;-77
2022/03/06 16:45:22;;;;;;;13.75;8.02;;;;;;;2.70;40.44;98279.53;12581301;23;20025;-77
2022/03/06 16:51:12;;;;;;;11.80;8.13;;;;;;;2.59;39.77;98279.72;12529436;23;20063;-76
2022/03/06 16:56:33;;;;;;;13.13;8.05;;;;;;;2.67;39.42;98291.59;12506668;23;20026;-77
2022/03/06 17:01:54;;;;;;;11.80;7.45;;;;;;;2.64;40.08;98292.66;12537195;23;20074;-76
2022/03/06 17:07:17;;;;;;;15.80;9.38;;;;;;;2.52;40.48;98303.16;12517233;23;20027;-76
2022/03/06 17:20:34;;;;;;;14.93;8.55;;;;;;;2.28;41.42;98300.53;12578926;23;20018;-78
2022/03/06 17:25:57;;;;;;;13.15;8.82;;;;;;;2.35;41.36;98310.94;12536553;23;20421;-75
2022/03/06 17:40:13;;;;;;;11.18;8.57;;;;;;;2.36;41.50;98328.97;12579984;23;20025;-77
2022/03/06 17:46:44;;;;;;;12.05;7.82;;;;;;;2.35;41.44;98321.97;12576716;23;20019;-77
2022/03/06 17:59:39;;;;;;;13.00;8.43;;;;;;;2.23;41.21;98329.66;12579231;23;20019;-76
2022/03/06 18:05:38;;;;;;;10.57;7.63;;;;;;;2.26;41.49;98336.13;12542349;23;20023;-75
2022/03/06 18:12:00;;;;;;;10.77;7.80;;;;;;;2.25;40.69;98343.66;12542393;23;20031;-76
2022/03/06 18:17:26;;;;;;;12.30;8.52;;;;;;;2.23;41.60;98340.69;12561188;23;20026;-75
2022/03/06 18:23:15;;;;;;;14.47;9.33;;;;;;;2.27;41.74;98349.38;12548320;23;20094;-77
2022/03/06 18:28:36;;;;;;;14.27;9.18;;;;;;;2.16;41.45;98348.81;12548763;23;20131;-77
2022/03/06 18:33:57;;;;;;;12.05;8.90;;;;;;;2.02;41.68;98350.75;12600735;23;20025;-76
2022/03/06 18:39:19;;;;;;;12.13;9.43;;;;;;;2.13;41.77;98347.84;12621014;23;20022;-76
2022/03/06 18:44:40;;;;;;;13.07;9.45;;;;;;;2.07;41.65;98360.19;12621417;23;20441;-77
2022/03/06 18:50:00;;;;;;;14.18;9.65;;;;;;;2.04;41.72;98358.50;12581937;23;20326;-78
2022/03/06 18:55:21;;;;;;;15.45;10.38;;;;;;;1.91;42.21;98362.66;12580266;23;20028;-78
2022/03/06 19:00:42;;;;;;;14.02;9.88;;;;;;;1.92;42.41;98364.13;12559712;23;20464;-78
2022/03/06 19:06:04;;;;;;;12.60;9.90;;;;;;;1.77;42.03;98363.84;12651519;23;20085;-78
2022/03/06 19:11:44;;;;;;;12.38;9.38;;;;;;;1.60;42.14;98357.81;12663685;23;20374;-77
2022/03/06 19:17:05;;;;;;;12.88;10.13;;;;;;;1.52;42.31;98365.16;12639834;23;20018;-77
2022/03/06 19:22:30;;;;;;;;;;;;;;;1.45;42.27;98366.50;12641832;23;20022;-77
2022/03/06 19:27:51;;;;;;;11.15;9.50;;;;;;;1.31;42.74;98362.16;12678837;23;20225;-77
2022/03/06 19:33:12;;;;;;;13.98;10.40;;;;;;;1.32;42.30;98367.13;12639603;23;20360;-76
2022/03/06 19:38:36;;;;;;;12.52;10.13;;;;;;;1.38;41.98;98372.59;12599011;23;20022;-77
2022/03/06 19:43:57;;;;;;;14.23;10.27;;;;;;;1.47;42.41;98368.72;12658882;23;20022;-76
2022/03/06 19:49:19;;;;;;;13.80;9.10;;;;;;;1.43;42.08;98375.25;12639714;23;20022;-77
2022/03/06 19:54:40;;;;;;;12.90;9.43;;;;;;;1.32;42.22;98377.38;12638235;23;20345;-77
2022/03/06 20:00:03;;;;;;;14.85;10.60;;;;;;;1.31;42.49;98373.16;12658771;23;20433;-78
2022/03/06 20:05:26;;;;;;;14.45;10.10;;;;;;;1.31;42.35;98376.66;12639281;23;20044;-78
2022/03/06 20:10:50;;;;;;;14.27;10.73;;;;;;;1.24;42.27;98390.97;12640025;23;20022;-78
2022/03/06 20:16:11;;;;;;;15.05;10.98;;;;;;;1.23;42.01;98381.22;12618406;23;20029;-78
2022/03/06 20:21:32;;;;;;;14.38;11.20;;;;;;;1.11;41.35;98385.34;12638200;23;20072;-78
2022/03/06 20:26:53;;;;;;;13.32;9.95;;;;;;;1.00;40.92;98399.97;12678538;23;20014;-77
2022/03/06 20:32:15;;;;;;;13.43;10.48;;;;;;;0.91;40.98;98403.03;12640678;23;20076;-78
2022/03/06 20:37:36;;;;;;;16.27;12.10;;;;;;;0.94;40.71;98409.50;12642428;23;20022;-80
2022/03/06 20:42:57;;;;;;;15.27;11.35;;;;;;;0.92;40.85;98415.53;12669101;23;20025;-79
2022/03/06 20:48:20;;;;;;;15.00;11.63;;;;;;;0.98;41.19;98412.75;12649235;23;20018;-80
2022/03/06 20:53:41;;;;;;;14.80;10.93;;;;;;;1.08;41.42;98416.66;12667116;23;20460;-80
2022/03/06 20:59:02;;;;;;;14.63;10.18;;;;;;;1.08;40.94;98422.16;12666536;23;20022;-79
2022/03/06 21:04:23;;;;;;;21.70;14.43;;;;;;;1.10;40.71;98422.38;12678487;23;20318;-79
2022/03/06 21:09:43;;;;;;;15.30;10.60;;;;;;;1.15;40.97;98416.81;12667995;23;20013;-80
2022/03/06 21:15:05;;;;;;;14.02;10.05;;;;;;;1.11;41.24;98421.84;12665888;23;20034;-80
2022/03/06 21:20:26;;;;;;;13.90;10.63;;;;;;;1.08;40.81;98427.66;12644145;23;20022;-80
2022/03/06 21:25:47;;;;;;;11.40;8.57;;;;;;;1.12;40.75;98425.34;12663509;23;20021;-80
2022/03/06 21:31:08;;;;;;;10.90;8.40;;;;;;;1.11;40.29;98432.09;12643362;23;20026;-79
2022/03/06 21:36:30;;;;;;;11.82;8.35;;;;;;;1.07;39.98;98428.91;12642491;23;20018;-79
2022/03/06 21:41:51;;;;;;;13.55;8.90;;;;;;;1.07;39.63;98420.66;12661270;23;20018;-79
2022/03/06 21:47:13;;;;;;;11.13;8.82;;;;;;;1.09;39.54;98423.63;12664757;23;20068;-79
2022/03/06 21:52:34;;;;;;;11.02;8.13;;;;;;;1.11;39.52;98426.59;12643246;23;20118;-79
2022/03/06 21:57:55;;;;;;;13.38;9.32;;;;;;;0.98;39.32;98421.72;12644584;23;20392;-80
2022/03/06 22:03:16;;;;;;;10.93;8.85;;;;;;;0.93;39.27;98430.00;12659630;23;20039;-80
2022/03/06 22:08:38;;;;;;;14.38;9.45;;;;;;;0.91;39.92;98419.53;12641107;23;20080;-80
2022/03/06 22:13:58;;;;;;;14.20;10.00;;;;;;;0.93;39.73;98419.75;12660497;23;20023;-80
2022/03/06 22:19:20;;;;;;;13.68;9.93;;;;;;;0.86;39.67;98425.81;12661565;23;20014;-80
2022/03/06 22:24:41;;;;;;;12.45;9.75;;;;;;;0.90;39.77;98431.06;12641229;23;20405;-80
2022/03/06 22:30:02;;;;;;;13.95;9.98;;;;;;;0.85;39.69;98441.56;12653445;23;20021;-80
2022/03/06 22:35:24;;;;;;;14.65;10.63;;;;;;;0.78;39.57;98433.91;12643202;23;20091;-79
2022/03/06 22:40:45;;;;;;;12.73;9.68;;;;;;;0.80;39.74;98431.38;12642820;23;20022;-79
2022/03/06 22:46:06;;;;;;;11.73;9.55;;;;;;;0.82;39.30;98428.84;12661826;23;20018;-79
2022/03/06 22:51:29;;;;;;;14.45;9.35;;;;;;;0.84;39.75;98442.81;12664373;23;20022;-79
2022/03/06 22:56:50;;;;;;;11.80;8.77;;;;;;;0.84;39.34;98434.56;12642375;23;20022;-80
2022/03/06 23:02:10;;;;;;;14.90;9.18;;;;;;;0.77;39.54;98440.66;12627064;23;20327;-80
2022/03/06 23:07:33;;;;;;;15.13;8.75;;;;;;;0.68;39.58;98440.97;12627644;23;20341;-80
2022/03/06 23:12:54;;;;;;;13.48;9.30;;;;;;;0.74;39.62;98433.41;12666677;23;20048;-80
2022/03/06 23:18:15;;;;;;;12.25;9.38;;;;;;;0.72;39.68;98433.19;12666840;23;20093;-79
2022/03/06 23:23:38;;;;;;;11.40;8.13;;;;;;;0.60;39.45;98434.53;12651188;23;20038;-80
2022/03/06 23:29:00;;;;;;;12.57;8.68;;;;;;;0.65;39.86;98446.72;12644082;23;20345;-79
2022/03/06 23:34:21;;;;;;;13.88;8.88;;;;;;;0.66;40.07;98448.94;12645351;23;20018;-80
2022/03/06 23:39:42;;;;;;;11.15;7.70;;;;;;;0.65;39.65;98446.72;12646017;23;20026;-80
2022/03/06 23:45:05;;;;;;;12.18;8.73;;;;;;;0.67;39.97;98446.94;12625923;23;20030;-80
2022/03/06 23:50:26;;;;;;;11.30;8.25;;;;;;;0.68;40.08;98446.47;12667199;23;20130;-79
2022/03/06 23:55:47;;;;;;;11.27;7.97;;;;;;;0.59;39.95;98446.78;12646872;23;20022;-79
